createdAt,value
2017-03-27T00:00:25.562Z,1022.03
2017-03-27T00:01:06.139Z,1022.06
2017-03-27T00:01:46.701Z,1022.04
2017-03-27T00:02:27.259Z,1022.05
2017-03-27T00:03:07.827Z,1022.03
2017-03-27T00:03:48.405Z,1022.06
2017-03-27T00:04:28.981Z,1022.05
2017-03-27T00:05:09.556Z,1022.05
2017-03-27T00:05:50.124Z,1022.05
2017-03-27T00:06:30.714Z,1022.06
2017-03-27T00:07:11.291Z,1022.05
2017-03-27T00:07:51.863Z,1022.03
2017-03-27T00:08:32.433Z,1022.07
2017-03-27T00:10:45.231Z,1022.06
2017-03-27T00:11:25.800Z,1022.08
2017-03-27T00:12:06.405Z,1022.08
2017-03-27T00:12:47.000Z,1022.09
2017-03-27T00:13:27.578Z,1022.08
2017-03-27T00:14:08.193Z,1022.11
2017-03-27T00:14:48.784Z,1022.13
2017-03-27T00:15:29.377Z,1022.14
2017-03-27T00:16:09.946Z,1022.12
2017-03-27T00:16:50.515Z,1022.14
2017-03-27T00:17:31.093Z,1022.17
2017-03-27T00:18:11.681Z,1022.15
2017-03-27T00:18:52.233Z,1022.13
2017-03-27T00:19:32.849Z,1022.1
2017-03-27T00:20:13.419Z,1022.12
2017-03-27T00:20:54.014Z,1022.03
2017-03-27T00:21:34.605Z,1022.06
2017-03-27T00:22:15.169Z,1022.06
2017-03-27T00:22:55.740Z,1022.03
2017-03-27T00:23:36.319Z,1022.02
2017-03-27T00:24:16.880Z,1021.99
2017-03-27T00:24:57.485Z,1022
2017-03-27T00:25:38.064Z,1021.98
2017-03-27T00:26:18.646Z,1021.92
2017-03-27T00:26:59.246Z,1021.94
2017-03-27T00:27:39.807Z,1021.88
2017-03-27T00:28:20.384Z,1021.86
2017-03-27T00:29:00.945Z,1021.82
2017-03-27T00:29:41.521Z,1021.81
2017-03-27T00:30:22.111Z,1021.82
2017-03-27T00:31:02.686Z,1021.82
2017-03-27T00:31:43.263Z,1021.81
2017-03-27T00:32:23.837Z,1021.81
2017-03-27T00:33:04.451Z,1021.81
2017-03-27T00:33:45.034Z,1021.79
2017-03-27T00:34:25.624Z,1021.81
2017-03-27T00:35:06.201Z,1021.79
2017-03-27T00:35:46.783Z,1021.82
2017-03-27T00:36:27.354Z,1021.81
2017-03-27T00:37:07.932Z,1021.79
2017-03-27T00:37:48.500Z,1021.82
2017-03-27T00:38:29.093Z,1021.81
2017-03-27T00:39:09.660Z,1021.79
2017-03-27T00:39:50.224Z,1021.82
2017-03-27T00:40:30.812Z,1021.83
2017-03-27T00:41:11.417Z,1021.82
2017-03-27T00:41:51.982Z,1021.86
2017-03-27T00:42:32.583Z,1021.82
2017-03-27T00:43:13.152Z,1021.85
2017-03-27T00:43:53.722Z,1021.91
2017-03-27T00:44:34.283Z,1021.87
2017-03-27T00:45:14.872Z,1021.88
2017-03-27T00:45:55.496Z,1021.9
2017-03-27T00:46:36.093Z,1021.92
2017-03-27T00:47:16.693Z,1021.93
2017-03-27T00:47:57.277Z,1021.92
2017-03-27T00:48:37.838Z,1021.92
2017-03-27T00:49:18.446Z,1021.91
2017-03-27T00:49:59.013Z,1021.97
2017-03-27T00:50:39.586Z,1021.98
2017-03-27T00:51:20.155Z,1021.98
2017-03-27T00:52:00.734Z,1021.95
2017-03-27T00:52:41.314Z,1021.92
2017-03-27T00:53:21.889Z,1021.95
2017-03-27T00:54:02.470Z,1021.93
2017-03-27T00:54:43.051Z,1021.95
2017-03-27T00:55:23.626Z,1021.95
2017-03-27T00:56:04.213Z,1021.9
2017-03-27T00:56:44.786Z,1021.92
2017-03-27T00:57:25.365Z,1021.92
2017-03-27T00:58:05.954Z,1021.94
2017-03-27T00:58:46.538Z,1021.92
2017-03-27T00:59:27.130Z,1021.96
2017-03-27T01:00:07.709Z,1021.91
2017-03-27T01:00:48.270Z,1021.96
2017-03-27T01:01:28.860Z,1021.92
2017-03-27T01:02:09.436Z,1021.96
2017-03-27T01:02:50.015Z,1021.95
2017-03-27T01:03:30.607Z,1021.98
2017-03-27T01:04:11.214Z,1021.98
2017-03-27T01:04:51.774Z,1021.99
2017-03-27T01:05:32.386Z,1021.98
2017-03-27T01:06:12.950Z,1021.95
2017-03-27T01:06:53.522Z,1021.94
2017-03-27T01:07:34.083Z,1021.95
2017-03-27T01:08:14.667Z,1021.91
2017-03-27T01:08:55.235Z,1021.91
2017-03-27T01:09:35.815Z,1021.89
2017-03-27T01:10:16.377Z,1021.91
2017-03-27T01:10:56.973Z,1021.91
2017-03-27T01:11:37.550Z,1021.88
2017-03-27T01:12:18.108Z,1021.88
2017-03-27T01:12:58.672Z,1021.88
2017-03-27T01:13:39.246Z,1021.89
2017-03-27T01:14:19.825Z,1021.9
2017-03-27T01:15:00.468Z,1021.89
2017-03-27T01:15:41.035Z,1021.9
2017-03-27T01:16:21.617Z,1021.89
2017-03-27T01:17:02.173Z,1021.89
2017-03-27T01:17:42.739Z,1021.88
2017-03-27T01:18:23.346Z,1021.89
2017-03-27T01:19:03.927Z,1021.88
2017-03-27T01:19:44.499Z,1021.89
2017-03-27T01:20:25.085Z,1021.92
2017-03-27T01:21:05.737Z,1021.88
2017-03-27T01:21:46.335Z,1021.9
2017-03-27T01:22:26.900Z,1021.88
2017-03-27T01:23:07.461Z,1021.9
2017-03-27T01:23:48.047Z,1021.88
2017-03-27T01:24:28.628Z,1021.89
2017-03-27T01:25:09.237Z,1021.89
2017-03-27T01:25:49.810Z,1021.86
2017-03-27T01:26:30.381Z,1021.89
2017-03-27T01:27:10.992Z,1021.91
2017-03-27T01:27:51.577Z,1021.89
2017-03-27T01:28:32.177Z,1021.93
2017-03-27T01:29:12.747Z,1021.94
2017-03-27T01:29:53.326Z,1021.95
2017-03-27T01:30:33.903Z,1021.94
2017-03-27T01:31:14.489Z,1021.97
2017-03-27T01:31:55.059Z,1021.95
2017-03-27T01:32:35.637Z,1021.97
2017-03-27T01:33:16.251Z,1021.99
2017-03-27T01:33:56.834Z,1021.96
2017-03-27T01:34:37.404Z,1021.99
2017-03-27T01:35:17.989Z,1021.99
2017-03-27T01:35:58.598Z,1021.99
2017-03-27T01:36:39.176Z,1022.04
2017-03-27T01:37:19.767Z,1022.06
2017-03-27T01:40:02.511Z,1022.01
2017-03-27T01:40:43.081Z,1022.02
2017-03-27T01:41:23.668Z,1022.03
2017-03-27T01:42:04.235Z,1021.98
2017-03-27T01:42:44.874Z,1022.01
2017-03-27T01:43:25.448Z,1021.98
2017-03-27T01:44:06.041Z,1022.03
2017-03-27T01:44:46.598Z,1022.01
2017-03-27T01:45:27.166Z,1021.97
2017-03-27T01:46:07.773Z,1021.99
2017-03-27T01:46:48.376Z,1021.95
2017-03-27T01:47:29.080Z,1022
2017-03-27T01:48:09.700Z,1021.93
2017-03-27T01:48:50.315Z,1021.92
2017-03-27T01:49:30.911Z,1021.94
2017-03-27T01:50:11.504Z,1021.96
2017-03-27T01:50:52.079Z,1021.96
2017-03-27T01:51:32.647Z,1021.95
2017-03-27T01:52:13.239Z,1021.93
2017-03-27T01:52:53.842Z,1021.94
2017-03-27T01:53:34.408Z,1021.93
2017-03-27T01:54:14.987Z,1021.93
2017-03-27T01:54:55.570Z,1021.94
2017-03-27T01:55:36.153Z,1021.93
2017-03-27T01:56:16.741Z,1021.92
2017-03-27T01:56:57.329Z,1021.91
2017-03-27T01:57:37.989Z,1021.95
2017-03-27T01:58:18.558Z,1021.94
2017-03-27T01:58:59.142Z,1021.93
2017-03-27T01:59:39.795Z,1021.95
2017-03-27T02:00:20.367Z,1021.93
2017-03-27T02:01:00.937Z,1021.92
2017-03-27T02:01:41.501Z,1021.91
2017-03-27T02:02:22.072Z,1021.88
2017-03-27T02:03:02.682Z,1021.91
2017-03-27T02:03:43.248Z,1021.89
2017-03-27T02:04:23.831Z,1021.91
2017-03-27T02:05:04.405Z,1021.88
2017-03-27T02:05:44.965Z,1021.91
2017-03-27T02:06:25.547Z,1021.92
2017-03-27T02:07:06.135Z,1021.9
2017-03-27T02:07:46.720Z,1021.85
2017-03-27T02:08:27.309Z,1021.86
2017-03-27T02:09:07.916Z,1021.89
2017-03-27T02:09:48.503Z,1021.89
2017-03-27T02:10:29.095Z,1021.87
2017-03-27T02:11:09.672Z,1021.85
2017-03-27T02:11:50.230Z,1021.84
2017-03-27T02:12:30.841Z,1021.85
2017-03-27T02:13:11.401Z,1021.84
2017-03-27T02:13:51.970Z,1021.86
2017-03-27T02:14:32.546Z,1021.87
2017-03-27T02:15:13.114Z,1021.82
2017-03-27T02:15:53.696Z,1021.83
2017-03-27T02:16:34.261Z,1021.79
2017-03-27T02:17:14.833Z,1021.78
2017-03-27T02:17:55.418Z,1021.8
2017-03-27T02:18:35.996Z,1021.81
2017-03-27T02:19:16.557Z,1021.81
2017-03-27T02:19:57.163Z,1021.8
2017-03-27T02:20:37.700Z,1021.84
2017-03-27T02:21:18.270Z,1021.78
2017-03-27T02:21:58.854Z,1021.78
2017-03-27T02:22:39.470Z,1021.8
2017-03-27T02:23:20.071Z,1021.74
2017-03-27T02:24:00.672Z,1021.78
2017-03-27T02:24:41.227Z,1021.75
2017-03-27T02:25:21.825Z,1021.78
2017-03-27T02:26:02.407Z,1021.82
2017-03-27T02:26:42.972Z,1021.77
2017-03-27T02:27:23.571Z,1021.8
2017-03-27T02:28:04.209Z,1021.75
2017-03-27T02:30:32.233Z,1021.8
2017-03-27T02:31:12.794Z,1021.81
2017-03-27T02:31:53.395Z,1021.79
2017-03-27T02:32:33.975Z,1021.77
2017-03-27T02:33:14.541Z,1021.78
2017-03-27T02:33:55.114Z,1021.77
2017-03-27T02:34:35.713Z,1021.78
2017-03-27T02:35:16.318Z,1021.76
2017-03-27T02:35:56.866Z,1021.77
2017-03-27T02:36:37.484Z,1021.75
2017-03-27T02:37:18.032Z,1021.74
2017-03-27T02:37:58.607Z,1021.75
2017-03-27T02:38:39.170Z,1021.73
2017-03-27T02:39:19.776Z,1021.79
2017-03-27T02:40:00.353Z,1021.79
2017-03-27T02:40:40.914Z,1021.77
2017-03-27T02:41:21.485Z,1021.76
2017-03-27T02:42:02.090Z,1021.78
2017-03-27T02:42:42.690Z,1021.81
2017-03-27T02:43:23.266Z,1021.73
2017-03-27T02:44:03.877Z,1021.77
2017-03-27T02:44:44.434Z,1021.76
2017-03-27T02:45:25.014Z,1021.74
2017-03-27T02:46:05.599Z,1021.78
2017-03-27T02:46:46.195Z,1021.73
2017-03-27T02:47:26.801Z,1021.73
2017-03-27T02:48:07.376Z,1021.73
2017-03-27T02:48:47.945Z,1021.73
2017-03-27T02:49:28.519Z,1021.77
2017-03-27T02:50:09.109Z,1021.75
2017-03-27T02:50:49.692Z,1021.75
2017-03-27T02:51:30.292Z,1021.73
2017-03-27T02:52:10.879Z,1021.73
2017-03-27T02:52:51.454Z,1021.78
2017-03-27T02:53:32.016Z,1021.75
2017-03-27T02:54:12.588Z,1021.78
2017-03-27T02:54:53.197Z,1021.75
2017-03-27T02:55:33.783Z,1021.77
2017-03-27T02:56:14.401Z,1021.77
2017-03-27T02:56:54.954Z,1021.74
2017-03-27T02:57:35.534Z,1021.77
2017-03-27T02:58:16.109Z,1021.77
2017-03-27T02:58:56.674Z,1021.76
2017-03-27T02:59:37.293Z,1021.73
2017-03-27T03:00:17.871Z,1021.75
2017-03-27T03:00:58.466Z,1021.74
2017-03-27T03:01:39.040Z,1021.75
2017-03-27T03:02:19.604Z,1021.72
2017-03-27T03:03:00.206Z,1021.75
2017-03-27T03:03:40.763Z,1021.75
2017-03-27T03:04:21.364Z,1021.78
2017-03-27T03:05:01.949Z,1021.71
2017-03-27T03:05:42.518Z,1021.76
2017-03-27T03:06:23.097Z,1021.77
2017-03-27T03:07:03.682Z,1021.75
2017-03-27T03:07:44.240Z,1021.73
2017-03-27T03:08:24.818Z,1021.73
2017-03-27T03:09:05.411Z,1021.72
2017-03-27T03:09:46.010Z,1021.72
2017-03-27T03:10:26.588Z,1021.72
2017-03-27T03:11:07.168Z,1021.69
2017-03-27T03:11:47.782Z,1021.72
2017-03-27T03:12:28.358Z,1021.72
2017-03-27T03:13:08.931Z,1021.68
2017-03-27T03:13:49.545Z,1021.7
2017-03-27T03:14:30.118Z,1021.71
2017-03-27T03:15:10.746Z,1021.65
2017-03-27T03:15:51.322Z,1021.7
2017-03-27T03:16:31.890Z,1021.66
2017-03-27T03:17:12.486Z,1021.68
2017-03-27T03:17:53.087Z,1021.62
2017-03-27T03:18:33.662Z,1021.66
2017-03-27T03:19:14.244Z,1021.62
2017-03-27T03:19:54.819Z,1021.61
2017-03-27T03:20:35.430Z,1021.63
2017-03-27T03:21:16.004Z,1021.61
2017-03-27T03:21:56.571Z,1021.61
2017-03-27T03:22:37.151Z,1021.65
2017-03-27T03:23:17.734Z,1021.7
2017-03-27T03:23:58.304Z,1021.67
2017-03-27T03:24:38.900Z,1021.66
2017-03-27T03:25:19.497Z,1021.61
2017-03-27T03:26:00.105Z,1021.62
2017-03-27T03:26:40.709Z,1021.62
2017-03-27T03:27:21.301Z,1021.65
2017-03-27T03:28:01.910Z,1021.66
2017-03-27T03:28:42.504Z,1021.62
2017-03-27T03:29:23.096Z,1021.63
2017-03-27T03:30:03.671Z,1021.59
2017-03-27T03:30:44.247Z,1021.63
2017-03-27T03:31:24.825Z,1021.59
2017-03-27T03:32:05.392Z,1021.57
2017-03-27T03:32:45.961Z,1021.58
2017-03-27T03:33:26.527Z,1021.6
2017-03-27T03:34:07.120Z,1021.6
2017-03-27T03:34:47.718Z,1021.57
2017-03-27T03:35:28.291Z,1021.56
2017-03-27T03:36:08.869Z,1021.6
2017-03-27T03:36:49.433Z,1021.62
2017-03-27T03:37:30.026Z,1021.62
2017-03-27T03:38:10.597Z,1021.6
2017-03-27T03:38:51.185Z,1021.57
2017-03-27T03:39:31.764Z,1021.57
2017-03-27T03:40:12.400Z,1021.55
2017-03-27T03:40:52.983Z,1021.56
2017-03-27T03:41:33.551Z,1021.54
2017-03-27T03:42:14.108Z,1021.56
2017-03-27T03:42:54.694Z,1021.51
2017-03-27T03:43:35.295Z,1021.52
2017-03-27T03:44:15.868Z,1021.53
2017-03-27T03:44:56.452Z,1021.51
2017-03-27T03:45:37.030Z,1021.53
2017-03-27T03:46:17.607Z,1021.55
2017-03-27T03:46:58.173Z,1021.53
2017-03-27T03:47:38.746Z,1021.54
2017-03-27T03:48:19.339Z,1021.56
2017-03-27T03:48:59.922Z,1021.54
2017-03-27T03:49:40.517Z,1021.52
2017-03-27T03:50:21.086Z,1021.58
2017-03-27T03:51:01.681Z,1021.55
2017-03-27T03:51:42.230Z,1021.53
2017-03-27T03:52:22.806Z,1021.55
2017-03-27T03:53:03.454Z,1021.6
2017-03-27T03:53:44.064Z,1021.57
2017-03-27T03:54:24.629Z,1021.59
2017-03-27T03:55:05.197Z,1021.56
2017-03-27T03:55:45.775Z,1021.64
2017-03-27T03:56:26.362Z,1021.61
2017-03-27T03:57:06.942Z,1021.61
2017-03-27T03:57:47.528Z,1021.58
2017-03-27T03:58:28.115Z,1021.64
2017-03-27T03:59:08.707Z,1021.69
2017-03-27T03:59:49.279Z,1021.63
2017-03-27T04:00:29.856Z,1021.67
2017-03-27T04:01:10.418Z,1021.65
2017-03-27T04:01:51.010Z,1021.7
2017-03-27T04:02:31.616Z,1021.7
2017-03-27T04:03:12.192Z,1021.71
2017-03-27T04:03:52.765Z,1021.71
2017-03-27T04:04:33.363Z,1021.72
2017-03-27T04:05:13.925Z,1021.71
2017-03-27T04:05:54.526Z,1021.71
2017-03-27T04:06:35.133Z,1021.73
2017-03-27T04:07:15.738Z,1021.76
2017-03-27T04:07:56.317Z,1021.74
2017-03-27T04:08:36.893Z,1021.74
2017-03-27T04:09:17.482Z,1021.71
2017-03-27T04:09:58.061Z,1021.73
2017-03-27T04:10:38.642Z,1021.71
2017-03-27T04:11:19.277Z,1021.71
2017-03-27T04:11:59.888Z,1021.74
2017-03-27T04:12:40.493Z,1021.74
2017-03-27T04:13:21.138Z,1021.73
2017-03-27T04:14:01.748Z,1021.75
2017-03-27T04:14:42.342Z,1021.7
2017-03-27T04:15:22.925Z,1021.74
2017-03-27T04:16:03.516Z,1021.73
2017-03-27T04:16:44.084Z,1021.76
2017-03-27T04:17:24.680Z,1021.77
2017-03-27T04:18:05.256Z,1021.76
2017-03-27T04:18:45.876Z,1021.77
2017-03-27T04:19:26.468Z,1021.79
2017-03-27T04:20:07.052Z,1021.78
2017-03-27T04:20:47.639Z,1021.76
2017-03-27T04:21:28.266Z,1021.75
2017-03-27T04:22:08.818Z,1021.77
2017-03-27T04:22:49.393Z,1021.79
2017-03-27T04:23:29.971Z,1021.78
2017-03-27T04:24:10.566Z,1021.79
2017-03-27T04:24:51.150Z,1021.78
2017-03-27T04:25:31.721Z,1021.81
2017-03-27T04:26:12.294Z,1021.81
2017-03-27T04:26:52.865Z,1021.85
2017-03-27T04:27:33.452Z,1021.86
2017-03-27T04:28:14.030Z,1021.8
2017-03-27T04:28:54.625Z,1021.87
2017-03-27T04:29:35.230Z,1021.88
2017-03-27T04:30:15.832Z,1021.86
2017-03-27T04:30:56.408Z,1021.87
2017-03-27T04:31:36.987Z,1021.89
2017-03-27T04:32:17.575Z,1021.88
2017-03-27T04:32:58.925Z,1021.91
2017-03-27T04:33:39.493Z,1021.95
2017-03-27T04:34:20.077Z,1021.91
2017-03-27T04:35:00.659Z,1021.87
2017-03-27T04:35:41.211Z,1021.9
2017-03-27T04:36:21.798Z,1021.89
2017-03-27T04:37:02.363Z,1021.94
2017-03-27T04:37:42.939Z,1021.95
2017-03-27T04:38:23.540Z,1021.93
2017-03-27T04:39:04.111Z,1021.92
2017-03-27T04:39:44.688Z,1021.95
2017-03-27T04:40:25.275Z,1021.98
2017-03-27T04:41:05.848Z,1021.98
2017-03-27T04:41:46.408Z,1022
2017-03-27T04:42:26.980Z,1021.96
2017-03-27T04:43:07.557Z,1022
2017-03-27T04:43:48.140Z,1021.98
2017-03-27T04:44:28.768Z,1021.99
2017-03-27T04:45:09.337Z,1021.97
2017-03-27T04:45:49.909Z,1022.01
2017-03-27T04:46:30.502Z,1022
2017-03-27T04:47:11.091Z,1022.03
2017-03-27T04:47:51.677Z,1022.02
2017-03-27T04:48:32.258Z,1021.98
2017-03-27T04:49:12.836Z,1021.96
2017-03-27T04:49:53.419Z,1021.94
2017-03-27T04:50:34.013Z,1021.95
2017-03-27T04:51:14.590Z,1021.94
2017-03-27T04:53:33.407Z,1021.89
2017-03-27T04:54:14.062Z,1021.89
2017-03-27T04:54:54.648Z,1021.89
2017-03-27T04:55:35.230Z,1021.88
2017-03-27T04:56:15.825Z,1021.85
2017-03-27T04:56:56.498Z,1021.84
2017-03-27T04:57:37.089Z,1021.87
2017-03-27T04:58:17.675Z,1021.87
2017-03-27T04:58:58.250Z,1021.85
2017-03-27T04:59:38.869Z,1021.84
2017-03-27T05:00:19.500Z,1021.85
2017-03-27T05:01:00.082Z,1021.8
2017-03-27T05:01:40.669Z,1021.78
2017-03-27T05:02:21.251Z,1021.78
2017-03-27T05:03:01.813Z,1021.8
2017-03-27T05:03:42.395Z,1021.78
2017-03-27T05:04:22.978Z,1021.79
2017-03-27T05:05:03.543Z,1021.81
2017-03-27T05:05:44.110Z,1021.82
2017-03-27T05:06:24.670Z,1021.87
2017-03-27T05:07:05.250Z,1021.82
2017-03-27T05:07:45.810Z,1021.85
2017-03-27T05:08:26.376Z,1021.85
2017-03-27T05:09:06.959Z,1021.83
2017-03-27T05:09:47.573Z,1021.86
2017-03-27T05:10:28.148Z,1021.86
2017-03-27T05:11:08.753Z,1021.83
2017-03-27T05:11:49.362Z,1021.8
2017-03-27T05:12:29.957Z,1021.85
2017-03-27T05:13:10.573Z,1021.82
2017-03-27T05:13:51.162Z,1021.79
2017-03-27T05:14:31.751Z,1021.84
2017-03-27T05:15:12.317Z,1021.8
2017-03-27T05:15:52.916Z,1021.82
2017-03-27T05:16:33.496Z,1021.81
2017-03-27T05:17:14.083Z,1021.81
2017-03-27T05:17:54.687Z,1021.82
2017-03-27T05:18:35.286Z,1021.81
2017-03-27T05:19:15.855Z,1021.84
2017-03-27T05:19:56.429Z,1021.83
2017-03-27T05:20:36.998Z,1021.84
2017-03-27T05:21:17.595Z,1021.79
2017-03-27T05:21:58.185Z,1021.8
2017-03-27T05:22:38.745Z,1021.77
2017-03-27T05:23:19.335Z,1021.81
2017-03-27T05:23:59.930Z,1021.8
2017-03-27T05:24:40.517Z,1021.79
2017-03-27T05:25:21.093Z,1021.79
2017-03-27T05:26:01.719Z,1021.78
2017-03-27T05:26:42.324Z,1021.79
2017-03-27T05:27:22.896Z,1021.79
2017-03-27T05:28:03.518Z,1021.84
2017-03-27T05:28:44.097Z,1021.81
2017-03-27T05:29:24.694Z,1021.85
2017-03-27T05:30:07.874Z,1021.81
2017-03-27T05:30:48.453Z,1021.83
2017-03-27T05:31:29.014Z,1021.84
2017-03-27T05:32:09.588Z,1021.81
2017-03-27T05:32:50.228Z,1021.82
2017-03-27T05:35:07.834Z,1021.82
2017-03-27T05:35:48.400Z,1021.85
2017-03-27T05:36:28.983Z,1021.8
2017-03-27T05:37:09.564Z,1021.82
2017-03-27T05:37:50.144Z,1021.86
2017-03-27T05:38:30.709Z,1021.83
2017-03-27T05:39:11.282Z,1021.81
2017-03-27T05:39:51.854Z,1021.82
2017-03-27T05:40:32.454Z,1021.78
2017-03-27T05:41:13.034Z,1021.73
2017-03-27T05:41:53.655Z,1021.75
2017-03-27T05:42:34.251Z,1021.72
2017-03-27T05:43:14.837Z,1021.71
2017-03-27T05:43:55.415Z,1021.68
2017-03-27T05:44:36.010Z,1021.71
2017-03-27T05:45:16.616Z,1021.69
2017-03-27T05:45:57.201Z,1021.68
2017-03-27T05:46:37.793Z,1021.72
2017-03-27T05:47:18.381Z,1021.68
2017-03-27T05:47:58.952Z,1021.7
2017-03-27T05:48:39.539Z,1021.7
2017-03-27T05:49:20.155Z,1021.7
2017-03-27T05:50:00.717Z,1021.79
2017-03-27T05:50:41.318Z,1021.73
2017-03-27T05:51:21.882Z,1021.77
2017-03-27T05:52:02.476Z,1021.84
2017-03-27T05:52:43.050Z,1021.87
2017-03-27T05:53:23.633Z,1021.84
2017-03-27T05:54:04.224Z,1021.84
2017-03-27T05:54:44.788Z,1021.8
2017-03-27T05:55:25.374Z,1021.78
2017-03-27T05:56:05.962Z,1021.75
2017-03-27T05:56:46.552Z,1021.75
2017-03-27T05:57:27.138Z,1021.74
2017-03-27T05:58:09.593Z,1021.74
2017-03-27T05:58:50.202Z,1021.73
2017-03-27T05:59:30.806Z,1021.77
2017-03-27T06:00:11.376Z,1021.77
2017-03-27T06:00:51.988Z,1021.79
2017-03-27T06:01:32.566Z,1021.8
2017-03-27T06:02:13.173Z,1021.82
2017-03-27T06:02:53.751Z,1021.8
2017-03-27T06:03:34.363Z,1021.82
2017-03-27T06:04:14.930Z,1021.8
2017-03-27T06:04:55.489Z,1021.82
2017-03-27T06:05:36.056Z,1021.76
2017-03-27T06:06:16.823Z,1021.79
2017-03-27T06:06:57.419Z,1021.8
2017-03-27T06:07:38.008Z,1021.76
2017-03-27T06:08:18.617Z,1021.8
2017-03-27T06:08:59.249Z,1021.77
2017-03-27T06:09:39.846Z,1021.84
2017-03-27T06:10:23.376Z,1021.83
2017-03-27T06:11:03.972Z,1021.84
2017-03-27T06:11:44.533Z,1021.81
2017-03-27T06:12:25.083Z,1021.83
2017-03-27T06:13:05.671Z,1021.82
2017-03-27T06:13:46.249Z,1021.82
2017-03-27T06:14:26.843Z,1021.83
2017-03-27T06:15:07.500Z,1021.78
2017-03-27T06:15:48.110Z,1021.77
2017-03-27T06:16:28.699Z,1021.8
2017-03-27T06:17:09.279Z,1021.78
2017-03-27T06:17:49.863Z,1021.83
2017-03-27T06:18:30.450Z,1021.86
2017-03-27T06:19:11.023Z,1021.86
2017-03-27T06:19:51.611Z,1021.84
2017-03-27T06:20:32.241Z,1021.84
2017-03-27T06:21:12.869Z,1021.86
2017-03-27T06:21:53.494Z,1021.77
2017-03-27T06:22:34.071Z,1021.77
2017-03-27T06:23:14.661Z,1021.77
2017-03-27T06:23:55.246Z,1021.75
2017-03-27T06:24:35.812Z,1021.72
2017-03-27T06:25:16.410Z,1021.76
2017-03-27T06:25:56.983Z,1021.74
2017-03-27T06:26:37.594Z,1021.78
2017-03-27T06:27:18.161Z,1021.79
2017-03-27T06:27:58.793Z,1021.8
2017-03-27T06:28:39.345Z,1021.79
2017-03-27T06:29:19.961Z,1021.8
2017-03-27T06:30:00.549Z,1021.79
2017-03-27T06:30:41.163Z,1021.75
2017-03-27T06:31:21.720Z,1021.77
2017-03-27T06:32:02.294Z,1021.78
2017-03-27T06:32:42.863Z,1021.78
2017-03-27T06:33:23.436Z,1021.8
2017-03-27T06:34:04.030Z,1021.77
2017-03-27T06:34:44.622Z,1021.75
2017-03-27T06:35:25.202Z,1021.78
2017-03-27T06:36:05.774Z,1021.72
2017-03-27T06:36:46.446Z,1021.76
2017-03-27T06:37:27.028Z,1021.75
2017-03-27T06:38:07.585Z,1021.76
2017-03-27T06:38:48.185Z,1021.77
2017-03-27T06:39:28.775Z,1021.72
2017-03-27T06:40:09.340Z,1021.75
2017-03-27T06:40:49.964Z,1021.73
2017-03-27T06:41:30.583Z,1021.69
2017-03-27T06:42:11.170Z,1021.74
2017-03-27T06:42:51.789Z,1021.76
2017-03-27T06:43:32.394Z,1021.71
2017-03-27T06:44:12.986Z,1021.76
2017-03-27T06:44:53.552Z,1021.68
2017-03-27T06:45:34.135Z,1021.7
2017-03-27T06:46:14.692Z,1021.65
2017-03-27T06:46:55.282Z,1021.67
2017-03-27T06:47:35.868Z,1021.67
2017-03-27T06:48:16.441Z,1021.65
2017-03-27T06:48:57.043Z,1021.68
2017-03-27T06:49:37.663Z,1021.73
2017-03-27T06:50:18.258Z,1021.73
2017-03-27T06:50:58.864Z,1021.77
2017-03-27T06:51:39.447Z,1021.87
2017-03-27T06:52:20.048Z,1021.9
2017-03-27T06:53:00.616Z,1021.92
2017-03-27T06:53:41.201Z,1021.91
2017-03-27T06:54:21.770Z,1021.88
2017-03-27T06:55:02.360Z,1021.92
2017-03-27T06:55:42.970Z,1021.92
2017-03-27T06:56:23.529Z,1021.95
2017-03-27T06:57:04.102Z,1021.99
2017-03-27T06:57:44.674Z,1021.99
2017-03-27T06:58:25.276Z,1021.98
2017-03-27T06:59:05.862Z,1022
2017-03-27T06:59:46.502Z,1022.01
2017-03-27T07:00:27.086Z,1022.01
2017-03-27T07:01:07.691Z,1022.05
2017-03-27T07:01:48.270Z,1022.08
2017-03-27T07:02:28.854Z,1022.04
2017-03-27T07:03:09.438Z,1022.15
2017-03-27T07:03:50.021Z,1022.09
2017-03-27T07:04:30.591Z,1022.1
2017-03-27T07:05:11.239Z,1022.16
2017-03-27T07:05:51.804Z,1022.15
2017-03-27T07:06:32.401Z,1022.12
2017-03-27T07:07:12.985Z,1022.12
2017-03-27T07:07:53.563Z,1022.15
2017-03-27T07:08:34.151Z,1022.15
2017-03-27T07:09:14.743Z,1022.2
2017-03-27T07:09:55.333Z,1022.27
2017-03-27T07:10:35.911Z,1022.25
2017-03-27T07:11:16.550Z,1022.28
2017-03-27T07:11:57.157Z,1022.27
2017-03-27T07:12:37.759Z,1022.26
2017-03-27T07:13:18.349Z,1022.3
2017-03-27T07:13:58.949Z,1022.25
2017-03-27T07:14:39.528Z,1022.27
2017-03-27T07:15:20.124Z,1022.27
2017-03-27T07:16:00.718Z,1022.28
2017-03-27T07:16:41.378Z,1022.26
2017-03-27T07:17:21.968Z,1022.28
2017-03-27T07:18:02.567Z,1022.25
2017-03-27T07:18:43.138Z,1022.26
2017-03-27T07:19:23.715Z,1022.23
2017-03-27T07:20:04.294Z,1022.27
2017-03-27T07:20:44.876Z,1022.3
2017-03-27T07:21:25.486Z,1022.25
2017-03-27T07:22:06.062Z,1022.26
2017-03-27T07:22:46.656Z,1022.27
2017-03-27T07:23:27.247Z,1022.34
2017-03-27T07:24:07.846Z,1022.33
2017-03-27T07:24:48.445Z,1022.35
2017-03-27T07:25:29.035Z,1022.45
2017-03-27T07:26:09.635Z,1022.44
2017-03-27T07:26:50.241Z,1022.44
2017-03-27T07:27:30.830Z,1022.44
2017-03-27T07:28:11.426Z,1022.44
2017-03-27T07:28:52.022Z,1022.44
2017-03-27T07:29:32.601Z,1022.38
2017-03-27T07:30:13.204Z,1022.38
2017-03-27T07:30:53.785Z,1022.37
2017-03-27T07:31:34.401Z,1022.36
2017-03-27T07:32:15.002Z,1022.33
2017-03-27T07:32:55.603Z,1022.31
2017-03-27T07:33:36.190Z,1022.38
2017-03-27T07:34:16.811Z,1022.38
2017-03-27T07:34:57.439Z,1022.36
2017-03-27T07:35:38.042Z,1022.35
2017-03-27T07:36:18.649Z,1022.39
2017-03-27T07:36:59.333Z,1022.43
2017-03-27T07:37:39.953Z,1022.38
2017-03-27T07:38:20.554Z,1022.43
2017-03-27T07:39:01.167Z,1022.37
2017-03-27T07:39:41.764Z,1022.38
2017-03-27T07:40:22.365Z,1022.37
2017-03-27T07:41:03.015Z,1022.41
2017-03-27T07:41:43.632Z,1022.42
2017-03-27T07:42:24.220Z,1022.43
2017-03-27T07:43:04.790Z,1022.48
2017-03-27T07:43:45.386Z,1022.44
2017-03-27T07:44:25.980Z,1022.46
2017-03-27T07:45:06.580Z,1022.53
2017-03-27T07:45:47.233Z,1022.55
2017-03-27T07:46:27.842Z,1022.59
2017-03-27T07:47:08.436Z,1022.6
2017-03-27T07:47:49.013Z,1022.61
2017-03-27T07:48:29.681Z,1022.61
2017-03-27T07:49:10.272Z,1022.61
2017-03-27T07:49:50.849Z,1022.64
2017-03-27T07:50:31.463Z,1022.67
2017-03-27T07:51:12.084Z,1022.65
2017-03-27T07:51:52.690Z,1022.71
2017-03-27T07:52:33.279Z,1022.72
2017-03-27T07:53:13.907Z,1022.73
2017-03-27T07:53:54.525Z,1022.72
2017-03-27T07:54:35.146Z,1022.67
2017-03-27T07:55:17.297Z,1022.62
2017-03-27T07:55:57.920Z,1022.55
2017-03-27T07:56:38.501Z,1022.51
2017-03-27T07:57:19.088Z,1022.47
2017-03-27T07:57:59.695Z,1022.46
2017-03-27T07:58:40.284Z,1022.43
2017-03-27T07:59:20.877Z,1022.41
2017-03-27T08:00:01.493Z,1022.41
2017-03-27T08:00:42.079Z,1022.42
2017-03-27T08:01:22.708Z,1022.4
2017-03-27T08:02:03.288Z,1022.44
2017-03-27T08:02:43.891Z,1022.43
2017-03-27T08:03:24.507Z,1022.41
2017-03-27T08:04:05.105Z,1022.42
2017-03-27T08:04:45.678Z,1022.44
2017-03-27T08:05:26.266Z,1022.41
2017-03-27T08:06:06.867Z,1022.42
2017-03-27T08:06:47.474Z,1022.43
2017-03-27T08:07:28.067Z,1022.42
2017-03-27T08:08:08.660Z,1022.49
2017-03-27T08:08:49.331Z,1022.48
2017-03-27T08:09:29.904Z,1022.46
2017-03-27T08:10:10.520Z,1022.48
2017-03-27T08:10:51.123Z,1022.44
2017-03-27T08:11:31.767Z,1022.49
2017-03-27T08:12:12.403Z,1022.53
2017-03-27T08:12:52.998Z,1022.51
2017-03-27T08:13:33.597Z,1022.52
2017-03-27T08:14:14.201Z,1022.55
2017-03-27T08:14:54.837Z,1022.5
2017-03-27T08:15:35.439Z,1022.51
2017-03-27T08:16:16.065Z,1022.5
2017-03-27T08:16:56.671Z,1022.49
2017-03-27T08:17:37.257Z,1022.48
2017-03-27T08:18:17.857Z,1022.45
2017-03-27T08:18:58.456Z,1022.47
2017-03-27T08:19:39.039Z,1022.42
2017-03-27T08:20:19.700Z,1022.44
2017-03-27T08:21:00.310Z,1022.39
2017-03-27T08:21:43.443Z,1022.4